Aviation Digital Data Service (ADDS)

Output produced by METARs form (1248 UTC 16 August 2022)
found at http://aviationweather.gov/metar/data/
 
METAR text: KPSO 161235Z AUTO 00000KT 10SM BKN110 12/12 A3032 RMK AO2 T01240122
Conditions at: KPSO (PAGOSA SPRINGS , CO, US) observed 1235 UTC 16 August 2022
Temperature: 12.4°C (54°F)
Dewpoint: 12.2°C (54°F) [RH = 99%]
Pressure (altimeter): 30.32 inches Hg (1026.8 mb)
Winds: calm
Visibility: 10 or more miles (16+ km)
Ceiling: 11000 feet AGL
Clouds: broken clouds at 11000 feet AGL
Weather: automated observation with no human augmentation;
there may or may not be significant weather present at this time

METAR text: KPSO 161215Z AUTO 00000KT 10SM OVC110 13/13 A3031 RMK AO2 T01260125
Conditions at: KPSO (PAGOSA SPRINGS , CO, US) observed 1215 UTC 16 August 2022
Temperature: 12.6°C (55°F)
Dewpoint: 12.5°C (54°F) [RH = 99%]
Pressure (altimeter): 30.31 inches Hg (1026.5 mb)
Winds: calm
Visibility: 10 or more miles (16+ km)
Ceiling: 11000 feet AGL
Clouds: overcast cloud deck at 11000 feet AGL
Weather: automated observation with no human augmentation;
there may or may not be significant weather present at this time

METAR text: KPSO 161155Z AUTO 00000KT 10SM OVC100 14/13 A3031 RMK AO2 T01350129 10152 20120
Conditions at: KPSO (PAGOSA SPRINGS , CO, US) observed 1155 UTC 16 August 2022
Temperature: 13.5°C (56°F)
Dewpoint: 12.9°C (55°F) [RH = 96%]
Pressure (altimeter): 30.31 inches Hg (1026.5 mb)
Winds: calm
Visibility: 10 or more miles (16+ km)
Ceiling: 10000 feet AGL
Clouds: overcast cloud deck at 10000 feet AGL
Weather: automated observation with no human augmentation;
there may or may not be significant weather present at this time